sensor_id;sensor_type;location;lat;lon;timestamp;P1;durP1;ratioP1;P2;durP2;ratioP2
71806;SDS011;59655;42.590;23.364;2022-07-23T00:01:20;15.80;;;7.00;;
71806;SDS011;59655;42.590;23.364;2022-07-23T00:03:46;23.13;;;7.28;;
71806;SDS011;59655;42.590;23.364;2022-07-23T00:06:11;14.63;;;7.65;;
71806;SDS011;59655;42.590;23.364;2022-07-23T00:08:37;22.95;;;7.95;;
71806;SDS011;59655;42.590;23.364;2022-07-23T00:11:02;16.02;;;7.25;;
71806;SDS011;59655;42.590;23.364;2022-07-23T00:13:28;17.90;;;7.35;;
71806;SDS011;59655;42.590;23.364;2022-07-23T00:15:53;15.68;;;7.22;;
71806;SDS011;59655;42.590;23.364;2022-07-23T00:18:19;17.23;;;7.35;;
71806;SDS011;59655;42.590;23.364;2022-07-23T00:20:44;17.40;;;7.50;;
71806;SDS011;59655;42.590;23.364;2022-07-23T00:23:09;15.32;;;7.13;;
71806;SDS011;59655;42.590;23.364;2022-07-23T00:25:35;19.42;;;8.25;;
71806;SDS011;59655;42.590;23.364;2022-07-23T00:28:01;20.10;;;7.95;;
71806;SDS011;59655;42.590;23.364;2022-07-23T00:30:27;17.17;;;7.40;;
71806;SDS011;59655;42.590;23.364;2022-07-23T00:32:55;21.98;;;7.85;;
71806;SDS011;59655;42.590;23.364;2022-07-23T00:35:22;13.30;;;7.28;;
71806;SDS011;59655;42.590;23.364;2022-07-23T00:37:51;14.15;;;7.30;;
71806;SDS011;59655;42.590;23.364;2022-07-23T00:40:17;15.13;;;7.70;;
71806;SDS011;59655;42.590;23.364;2022-07-23T00:42:43;17.45;;;7.50;;
71806;SDS011;59655;42.590;23.364;2022-07-23T00:45:08;17.15;;;7.63;;
71806;SDS011;59655;42.590;23.364;2022-07-23T00:47:34;15.35;;;8.07;;
71806;SDS011;59655;42.590;23.364;2022-07-23T00:49:59;16.95;;;7.30;;
71806;SDS011;59655;42.590;23.364;2022-07-23T00:52:25;16.25;;;7.00;;
71806;SDS011;59655;42.590;23.364;2022-07-23T00:54:50;15.98;;;7.13;;
71806;SDS011;59655;42.590;23.364;2022-07-23T00:57:16;18.10;;;7.38;;
71806;SDS011;59655;42.590;23.364;2022-07-23T00:59:42;17.42;;;7.43;;
71806;SDS011;59655;42.590;23.364;2022-07-23T01:02:08;13.93;;;6.53;;
71806;SDS011;59655;42.590;23.364;2022-07-23T01:04:33;16.90;;;7.03;;
71806;SDS011;59655;42.590;23.364;2022-07-23T01:06:59;15.55;;;6.97;;
71806;SDS011;59655;42.590;23.364;2022-07-23T01:09:25;12.57;;;7.43;;
71806;SDS011;59655;42.590;23.364;2022-07-23T01:11:51;16.48;;;7.57;;
71806;SDS011;59655;42.590;23.364;2022-07-23T01:14:17;16.55;;;7.22;;
71806;SDS011;59655;42.590;23.364;2022-07-23T01:16:44;17.08;;;7.30;;
71806;SDS011;59655;42.590;23.364;2022-07-23T01:19:11;16.58;;;8.05;;
71806;SDS011;59655;42.590;23.364;2022-07-23T01:21:39;15.18;;;7.30;;
71806;SDS011;59655;42.590;23.364;2022-07-23T01:24:06;15.52;;;7.07;;
71806;SDS011;59655;42.590;23.364;2022-07-23T01:26:33;13.23;;;7.13;;
71806;SDS011;59655;42.590;23.364;2022-07-23T01:28:59;21.15;;;7.53;;
71806;SDS011;59655;42.590;23.364;2022-07-23T01:31:25;16.33;;;6.95;;
71806;SDS011;59655;42.590;23.364;2022-07-23T01:33:51;14.85;;;7.38;;
71806;SDS011;59655;42.590;23.364;2022-07-23T01:36:16;15.73;;;7.45;;
71806;SDS011;59655;42.590;23.364;2022-07-23T01:38:42;17.67;;;7.35;;
71806;SDS011;59655;42.590;23.364;2022-07-23T01:41:07;20.98;;;7.57;;
71806;SDS011;59655;42.590;23.364;2022-07-23T01:43:33;15.10;;;7.03;;
71806;SDS011;59655;42.590;23.364;2022-07-23T01:45:58;17.98;;;7.07;;
71806;SDS011;59655;42.590;23.364;2022-07-23T01:48:23;16.83;;;6.70;;
71806;SDS011;59655;42.590;23.364;2022-07-23T01:50:50;16.55;;;7.10;;
71806;SDS011;59655;42.590;23.364;2022-07-23T01:53:16;14.52;;;7.20;;
71806;SDS011;59655;42.590;23.364;2022-07-23T01:55:41;20.08;;;7.07;;
71806;SDS011;59655;42.590;23.364;2022-07-23T01:58:07;16.30;;;6.60;;
71806;SDS011;59655;42.590;23.364;2022-07-23T02:00:33;22.85;;;7.65;;
71806;SDS011;59655;42.590;23.364;2022-07-23T02:02:58;18.85;;;7.55;;
71806;SDS011;59655;42.590;23.364;2022-07-23T02:05:27;18.40;;;7.70;;
71806;SDS011;59655;42.590;23.364;2022-07-23T02:07:57;16.05;;;7.90;;
71806;SDS011;59655;42.590;23.364;2022-07-23T02:10:22;17.30;;;6.97;;
71806;SDS011;59655;42.590;23.364;2022-07-23T02:12:48;14.30;;;7.05;;
71806;SDS011;59655;42.590;23.364;2022-07-23T02:15:13;21.52;;;8.50;;
71806;SDS011;59655;42.590;23.364;2022-07-23T02:17:39;14.20;;;7.20;;
71806;SDS011;59655;42.590;23.364;2022-07-23T02:20:05;16.48;;;7.40;;
71806;SDS011;59655;42.590;23.364;2022-07-23T02:22:32;31.10;;;7.65;;
71806;SDS011;59655;42.590;23.364;2022-07-23T02:24:58;16.73;;;7.85;;
71806;SDS011;59655;42.590;23.364;2022-07-23T02:27:23;15.43;;;6.95;;
71806;SDS011;59655;42.590;23.364;2022-07-23T02:29:49;16.92;;;7.68;;
71806;SDS011;59655;42.590;23.364;2022-07-23T02:32:15;14.57;;;6.80;;
71806;SDS011;59655;42.590;23.364;2022-07-23T02:34:40;16.98;;;7.10;;
71806;SDS011;59655;42.590;23.364;2022-07-23T02:37:06;15.35;;;8.18;;
71806;SDS011;59655;42.590;23.364;2022-07-23T02:39:33;16.88;;;7.13;;
71806;SDS011;59655;42.590;23.364;2022-07-23T02:41:59;17.73;;;7.00;;
71806;SDS011;59655;42.590;23.364;2022-07-23T02:44:24;14.23;;;7.18;;
71806;SDS011;59655;42.590;23.364;2022-07-23T02:46:50;17.48;;;7.72;;
71806;SDS011;59655;42.590;23.364;2022-07-23T02:49:15;20.00;;;7.47;;
71806;SDS011;59655;42.590;23.364;2022-07-23T02:51:41;23.30;;;12.05;;
71806;SDS011;59655;42.590;23.364;2022-07-23T02:54:07;15.50;;;7.03;;
71806;SDS011;59655;42.590;23.364;2022-07-23T02:56:32;14.00;;;7.35;;
71806;SDS011;59655;42.590;23.364;2022-07-23T02:58:58;23.60;;;7.70;;
71806;SDS011;59655;42.590;23.364;2022-07-23T03:01:23;20.48;;;6.75;;
71806;SDS011;59655;42.590;23.364;2022-07-23T03:03:48;17.27;;;6.85;;
71806;SDS011;59655;42.590;23.364;2022-07-23T03:06:14;14.52;;;7.10;;
71806;SDS011;59655;42.590;23.364;2022-07-23T03:08:39;17.05;;;7.78;;
71806;SDS011;59655;42.590;23.364;2022-07-23T03:11:04;15.60;;;7.20;;
71806;SDS011;59655;42.590;23.364;2022-07-23T03:13:35;20.00;;;7.45;;
71806;SDS011;59655;42.590;23.364;2022-07-23T03:16:04;18.45;;;7.18;;
71806;SDS011;59655;42.590;23.364;2022-07-23T03:18:30;13.05;;;6.70;;
71806;SDS011;59655;42.590;23.364;2022-07-23T03:20:56;18.73;;;7.45;;
71806;SDS011;59655;42.590;23.364;2022-07-23T03:23:21;16.02;;;6.57;;
71806;SDS011;59655;42.590;23.364;2022-07-23T03:25:47;18.98;;;7.93;;
71806;SDS011;59655;42.590;23.364;2022-07-23T03:28:13;17.58;;;7.22;;
71806;SDS011;59655;42.590;23.364;2022-07-23T03:30:43;16.45;;;7.28;;
71806;SDS011;59655;42.590;23.364;2022-07-23T03:33:11;20.33;;;7.07;;
71806;SDS011;59655;42.590;23.364;2022-07-23T03:35:41;15.70;;;7.05;;
71806;SDS011;59655;42.590;23.364;2022-07-23T03:38:07;17.35;;;7.20;;
71806;SDS011;59655;42.590;23.364;2022-07-23T03:40:32;15.15;;;6.90;;
71806;SDS011;59655;42.590;23.364;2022-07-23T03:42:58;16.02;;;7.07;;
71806;SDS011;59655;42.590;23.364;2022-07-23T03:45:23;18.30;;;7.63;;
71806;SDS011;59655;42.590;23.364;2022-07-23T03:47:48;19.55;;;7.18;;
71806;SDS011;59655;42.590;23.364;2022-07-23T03:50:14;15.35;;;6.03;;
71806;SDS011;59655;42.590;23.364;2022-07-23T03:52:39;17.13;;;6.82;;
71806;SDS011;59655;42.590;23.364;2022-07-23T03:55:05;18.75;;;6.45;;
71806;SDS011;59655;42.590;23.364;2022-07-23T03:57:31;17.05;;;7.43;;
71806;SDS011;59655;42.590;23.364;2022-07-23T03:59:57;19.08;;;7.93;;
71806;SDS011;59655;42.590;23.364;2022-07-23T04:02:22;14.52;;;7.53;;
71806;SDS011;59655;42.590;23.364;2022-07-23T04:04:48;14.38;;;7.40;;
71806;SDS011;59655;42.590;23.364;2022-07-23T04:07:14;13.13;;;7.25;;
71806;SDS011;59655;42.590;23.364;2022-07-23T04:09:42;18.02;;;7.70;;
71806;SDS011;59655;42.590;23.364;2022-07-23T04:12:08;20.15;;;7.10;;
71806;SDS011;59655;42.590;23.364;2022-07-23T04:14:33;20.60;;;8.13;;
71806;SDS011;59655;42.590;23.364;2022-07-23T04:16:59;16.80;;;7.65;;
71806;SDS011;59655;42.590;23.364;2022-07-23T04:19:24;20.35;;;8.02;;
71806;SDS011;59655;42.590;23.364;2022-07-23T04:21:50;22.58;;;9.40;;
71806;SDS011;59655;42.590;23.364;2022-07-23T04:24:16;23.35;;;9.55;;
71806;SDS011;59655;42.590;23.364;2022-07-23T04:26:42;19.13;;;8.82;;
71806;SDS011;59655;42.590;23.364;2022-07-23T04:29:09;16.90;;;8.43;;
71806;SDS011;59655;42.590;23.364;2022-07-23T04:31:34;21.35;;;7.93;;
71806;SDS011;59655;42.590;23.364;2022-07-23T04:33:59;20.05;;;7.03;;
71806;SDS011;59655;42.590;23.364;2022-07-23T04:36:25;17.95;;;7.47;;
71806;SDS011;59655;42.590;23.364;2022-07-23T04:38:50;19.80;;;8.10;;
71806;SDS011;59655;42.590;23.364;2022-07-23T04:41:16;22.40;;;7.63;;
71806;SDS011;59655;42.590;23.364;2022-07-23T04:43:41;16.70;;;8.38;;
71806;SDS011;59655;42.590;23.364;2022-07-23T04:46:06;14.48;;;8.13;;
71806;SDS011;59655;42.590;23.364;2022-07-23T04:48:32;18.25;;;8.40;;
71806;SDS011;59655;42.590;23.364;2022-07-23T04:50:57;16.88;;;8.43;;
71806;SDS011;59655;42.590;23.364;2022-07-23T04:53:23;15.27;;;8.30;;
71806;SDS011;59655;42.590;23.364;2022-07-23T04:55:48;15.18;;;8.15;;
71806;SDS011;59655;42.590;23.364;2022-07-23T04:58:14;18.00;;;8.50;;
71806;SDS011;59655;42.590;23.364;2022-07-23T05:00:39;12.65;;;7.43;;
71806;SDS011;59655;42.590;23.364;2022-07-23T05:03:05;18.20;;;8.57;;
71806;SDS011;59655;42.590;23.364;2022-07-23T05:05:30;14.82;;;7.45;;
71806;SDS011;59655;42.590;23.364;2022-07-23T05:07:56;15.80;;;7.53;;
71806;SDS011;59655;42.590;23.364;2022-07-23T05:10:21;21.95;;;8.48;;
71806;SDS011;59655;42.590;23.364;2022-07-23T05:12:46;18.13;;;8.93;;
71806;SDS011;59655;42.590;23.364;2022-07-23T05:15:12;18.63;;;9.38;;
71806;SDS011;59655;42.590;23.364;2022-07-23T05:17:38;19.05;;;8.35;;
71806;SDS011;59655;42.590;23.364;2022-07-23T05:20:03;15.43;;;8.30;;
71806;SDS011;59655;42.590;23.364;2022-07-23T05:22:29;16.30;;;8.43;;
71806;SDS011;59655;42.590;23.364;2022-07-23T05:24:54;14.68;;;8.35;;
71806;SDS011;59655;42.590;23.364;2022-07-23T05:27:20;16.83;;;8.48;;
71806;SDS011;59655;42.590;23.364;2022-07-23T05:29:45;15.68;;;8.70;;
71806;SDS011;59655;42.590;23.364;2022-07-23T05:32:10;15.43;;;8.50;;
71806;SDS011;59655;42.590;23.364;2022-07-23T05:34:36;17.38;;;9.00;;
71806;SDS011;59655;42.590;23.364;2022-07-23T05:37:01;13.85;;;8.48;;
71806;SDS011;59655;42.590;23.364;2022-07-23T05:39:27;16.52;;;8.70;;
71806;SDS011;59655;42.590;23.364;2022-07-23T05:41:52;20.30;;;8.90;;
71806;SDS011;59655;42.590;23.364;2022-07-23T05:44:17;20.05;;;8.63;;
71806;SDS011;59655;42.590;23.364;2022-07-23T05:46:43;16.27;;;9.05;;
71806;SDS011;59655;42.590;23.364;2022-07-23T05:49:08;22.80;;;9.07;;
71806;SDS011;59655;42.590;23.364;2022-07-23T05:51:34;19.08;;;9.45;;
71806;SDS011;59655;42.590;23.364;2022-07-23T05:53:59;15.30;;;9.27;;
71806;SDS011;59655;42.590;23.364;2022-07-23T05:56:25;14.73;;;9.18;;
71806;SDS011;59655;42.590;23.364;2022-07-23T05:58:50;20.13;;;9.05;;
71806;SDS011;59655;42.590;23.364;2022-07-23T06:01:16;18.58;;;9.73;;
71806;SDS011;59655;42.590;23.364;2022-07-23T06:03:41;16.52;;;9.23;;
71806;SDS011;59655;42.590;23.364;2022-07-23T06:06:06;19.55;;;8.73;;
71806;SDS011;59655;42.590;23.364;2022-07-23T06:08:33;17.83;;;10.30;;
71806;SDS011;59655;42.590;23.364;2022-07-23T06:10:59;24.92;;;10.65;;
71806;SDS011;59655;42.590;23.364;2022-07-23T06:13:24;19.35;;;10.20;;
71806;SDS011;59655;42.590;23.364;2022-07-23T06:15:49;17.00;;;8.65;;
71806;SDS011;59655;42.590;23.364;2022-07-23T06:18:15;14.82;;;8.80;;
71806;SDS011;59655;42.590;23.364;2022-07-23T06:20:41;21.60;;;8.65;;
71806;SDS011;59655;42.590;23.364;2022-07-23T06:23:06;16.17;;;9.10;;
71806;SDS011;59655;42.590;23.364;2022-07-23T06:25:31;17.88;;;8.82;;
71806;SDS011;59655;42.590;23.364;2022-07-23T06:27:57;16.58;;;8.50;;
71806;SDS011;59655;42.590;23.364;2022-07-23T06:30:22;16.42;;;9.20;;
71806;SDS011;59655;42.590;23.364;2022-07-23T06:32:48;17.70;;;8.70;;
71806;SDS011;59655;42.590;23.364;2022-07-23T06:35:14;18.80;;;9.23;;
71806;SDS011;59655;42.590;23.364;2022-07-23T06:37:40;15.40;;;9.07;;
71806;SDS011;59655;42.590;23.364;2022-07-23T06:40:05;15.35;;;9.25;;
71806;SDS011;59655;42.590;23.364;2022-07-23T06:42:31;13.90;;;9.15;;
71806;SDS011;59655;42.590;23.364;2022-07-23T06:44:56;18.05;;;9.43;;
71806;SDS011;59655;42.590;23.364;2022-07-23T06:47:22;14.52;;;9.02;;
71806;SDS011;59655;42.590;23.364;2022-07-23T06:49:47;13.25;;;8.98;;
71806;SDS011;59655;42.590;23.364;2022-07-23T06:52:13;16.83;;;10.10;;
71806;SDS011;59655;42.590;23.364;2022-07-23T06:54:38;20.70;;;10.15;;
71806;SDS011;59655;42.590;23.364;2022-07-23T06:57:04;20.50;;;9.90;;
71806;SDS011;59655;42.590;23.364;2022-07-23T06:59:29;16.25;;;9.30;;
71806;SDS011;59655;42.590;23.364;2022-07-23T07:01:55;13.38;;;9.50;;
71806;SDS011;59655;42.590;23.364;2022-07-23T07:04:20;16.00;;;9.07;;
71806;SDS011;59655;42.590;23.364;2022-07-23T07:06:45;15.75;;;9.57;;
71806;SDS011;59655;42.590;23.364;2022-07-23T07:09:11;21.70;;;9.70;;
71806;SDS011;59655;42.590;23.364;2022-07-23T07:11:36;17.42;;;9.35;;
71806;SDS011;59655;42.590;23.364;2022-07-23T07:14:02;18.00;;;9.75;;
71806;SDS011;59655;42.590;23.364;2022-07-23T07:16:29;18.80;;;10.23;;
71806;SDS011;59655;42.590;23.364;2022-07-23T07:18:54;15.25;;;9.25;;
71806;SDS011;59655;42.590;23.364;2022-07-23T07:21:20;17.38;;;10.05;;
71806;SDS011;59655;42.590;23.364;2022-07-23T07:23:45;15.00;;;9.75;;
71806;SDS011;59655;42.590;23.364;2022-07-23T07:26:10;17.95;;;11.13;;
71806;SDS011;59655;42.590;23.364;2022-07-23T07:28:36;18.40;;;10.32;;
71806;SDS011;59655;42.590;23.364;2022-07-23T07:31:01;15.65;;;9.80;;
71806;SDS011;59655;42.590;23.364;2022-07-23T07:33:26;17.95;;;9.32;;
71806;SDS011;59655;42.590;23.364;2022-07-23T07:35:52;16.98;;;9.25;;
71806;SDS011;59655;42.590;23.364;2022-07-23T07:38:18;17.42;;;10.18;;
71806;SDS011;59655;42.590;23.364;2022-07-23T07:40:43;14.98;;;9.25;;
71806;SDS011;59655;42.590;23.364;2022-07-23T07:43:09;16.20;;;9.18;;
71806;SDS011;59655;42.590;23.364;2022-07-23T07:45:34;14.55;;;9.27;;
71806;SDS011;59655;42.590;23.364;2022-07-23T07:48:00;15.77;;;9.23;;
71806;SDS011;59655;42.590;23.364;2022-07-23T07:50:25;16.48;;;8.98;;
71806;SDS011;59655;42.590;23.364;2022-07-23T07:52:51;16.48;;;9.32;;
71806;SDS011;59655;42.590;23.364;2022-07-23T07:55:16;14.32;;;8.88;;
71806;SDS011;59655;42.590;23.364;2022-07-23T07:57:42;19.83;;;9.23;;
71806;SDS011;59655;42.590;23.364;2022-07-23T08:00:08;16.15;;;9.27;;
71806;SDS011;59655;42.590;23.364;2022-07-23T08:05:06;25.60;;;10.23;;
71806;SDS011;59655;42.590;23.364;2022-07-23T08:07:32;14.48;;;9.60;;
71806;SDS011;59655;42.590;23.364;2022-07-23T08:09:57;16.73;;;9.80;;
71806;SDS011;59655;42.590;23.364;2022-07-23T08:12:23;24.05;;;13.25;;
71806;SDS011;59655;42.590;23.364;2022-07-23T08:14:48;23.00;;;11.00;;
71806;SDS011;59655;42.590;23.364;2022-07-23T08:17:13;22.10;;;11.65;;
71806;SDS011;59655;42.590;23.364;2022-07-23T08:19:39;22.35;;;12.77;;
71806;SDS011;59655;42.590;23.364;2022-07-23T08:22:04;15.98;;;9.73;;
71806;SDS011;59655;42.590;23.364;2022-07-23T08:24:30;23.50;;;13.90;;
71806;SDS011;59655;42.590;23.364;2022-07-23T08:26:55;19.67;;;13.18;;
71806;SDS011;59655;42.590;23.364;2022-07-23T08:29:20;22.42;;;11.85;;
71806;SDS011;59655;42.590;23.364;2022-07-23T08:31:46;17.45;;;9.38;;
71806;SDS011;59655;42.590;23.364;2022-07-23T08:34:11;17.63;;;10.00;;
71806;SDS011;59655;42.590;23.364;2022-07-23T08:36:37;23.95;;;13.52;;
71806;SDS011;59655;42.590;23.364;2022-07-23T08:39:02;18.17;;;10.52;;
71806;SDS011;59655;42.590;23.364;2022-07-23T08:41:28;19.88;;;11.23;;
71806;SDS011;59655;42.590;23.364;2022-07-23T08:43:54;23.80;;;12.48;;
71806;SDS011;59655;42.590;23.364;2022-07-23T08:46:20;15.23;;;9.75;;
71806;SDS011;59655;42.590;23.364;2022-07-23T08:48:47;18.98;;;10.70;;
71806;SDS011;59655;42.590;23.364;2022-07-23T08:51:14;24.42;;;11.40;;
71806;SDS011;59655;42.590;23.364;2022-07-23T08:53:40;19.92;;;9.52;;
71806;SDS011;59655;42.590;23.364;2022-07-23T08:56:06;25.55;;;10.50;;
71806;SDS011;59655;42.590;23.364;2022-07-23T08:58:32;20.98;;;10.40;;
71806;SDS011;59655;42.590;23.364;2022-07-23T09:00:58;19.30;;;10.10;;
71806;SDS011;59655;42.590;23.364;2022-07-23T09:03:42;16.40;;;9.73;;
71806;SDS011;59655;42.590;23.364;2022-07-23T09:06:10;20.25;;;10.02;;
71806;SDS011;59655;42.590;23.364;2022-07-23T09:11:03;21.33;;;10.27;;
71806;SDS011;59655;42.590;23.364;2022-07-23T09:13:31;20.75;;;10.95;;
71806;SDS011;59655;42.590;23.364;2022-07-23T09:15:58;26.58;;;10.65;;
71806;SDS011;59655;42.590;23.364;2022-07-23T09:18:37;27.20;;;11.38;;
71806;SDS011;59655;42.590;23.364;2022-07-23T09:21:07;24.85;;;11.20;;
71806;SDS011;59655;42.590;23.364;2022-07-23T09:23:43;28.17;;;11.77;;
71806;SDS011;59655;42.590;23.364;2022-07-23T09:26:30;20.30;;;9.57;;
71806;SDS011;59655;42.590;23.364;2022-07-23T09:28:58;25.08;;;10.68;;
71806;SDS011;59655;42.590;23.364;2022-07-23T09:36:55;19.05;;;10.18;;
71806;SDS011;59655;42.590;23.364;2022-07-23T09:39:33;18.40;;;9.40;;
71806;SDS011;59655;42.590;23.364;2022-07-23T09:42:12;15.95;;;9.25;;
71806;SDS011;59655;42.590;23.364;2022-07-23T09:44:42;21.17;;;10.52;;
71806;SDS011;59655;42.590;23.364;2022-07-23T09:47:08;24.17;;;9.75;;
71806;SDS011;59655;42.590;23.364;2022-07-23T09:49:34;25.45;;;9.48;;
71806;SDS011;59655;42.590;23.364;2022-07-23T09:52:00;21.50;;;9.88;;
71806;SDS011;59655;42.590;23.364;2022-07-23T09:56:57;23.70;;;9.70;;
71806;SDS011;59655;42.590;23.364;2022-07-23T09:59:29;19.40;;;9.35;;
71806;SDS011;59655;42.590;23.364;2022-07-23T10:01:57;22.83;;;10.10;;
71806;SDS011;59655;42.590;23.364;2022-07-23T10:04:24;13.40;;;7.82;;
71806;SDS011;59655;42.590;23.364;2022-07-23T10:06:52;15.32;;;7.75;;
71806;SDS011;59655;42.590;23.364;2022-07-23T10:09:24;20.63;;;8.25;;
71806;SDS011;59655;42.590;23.364;2022-07-23T10:11:52;22.15;;;9.52;;
71806;SDS011;59655;42.590;23.364;2022-07-23T10:14:20;15.85;;;8.95;;
71806;SDS011;59655;42.590;23.364;2022-07-23T10:16:46;14.00;;;7.75;;
71806;SDS011;59655;42.590;23.364;2022-07-23T10:19:12;17.48;;;8.05;;
71806;SDS011;59655;42.590;23.364;2022-07-23T10:21:52;17.88;;;9.32;;
71806;SDS011;59655;42.590;23.364;2022-07-23T10:24:28;15.63;;;8.50;;
71806;SDS011;59655;42.590;23.364;2022-07-23T10:27:02;18.45;;;8.20;;
71806;SDS011;59655;42.590;23.364;2022-07-23T10:29:40;16.30;;;7.85;;
71806;SDS011;59655;42.590;23.364;2022-07-23T10:37:22;17.67;;;8.00;;
71806;SDS011;59655;42.590;23.364;2022-07-23T10:42:42;18.13;;;8.05;;
71806;SDS011;59655;42.590;23.364;2022-07-23T10:47:54;18.35;;;8.50;;
71806;SDS011;59655;42.590;23.364;2022-07-23T10:55:44;12.63;;;7.40;;
71806;SDS011;59655;42.590;23.364;2022-07-23T10:58:12;22.33;;;8.35;;
71806;SDS011;59655;42.590;23.364;2022-07-23T11:00:46;16.58;;;8.20;;
71806;SDS011;59655;42.590;23.364;2022-07-23T11:06:20;18.05;;;7.28;;
71806;SDS011;59655;42.590;23.364;2022-07-23T11:08:45;19.48;;;8.00;;
71806;SDS011;59655;42.590;23.364;2022-07-23T11:11:11;19.13;;;8.32;;
71806;SDS011;59655;42.590;23.364;2022-07-23T11:16:04;24.08;;;8.55;;
71806;SDS011;59655;42.590;23.364;2022-07-23T11:23:59;25.33;;;6.82;;
71806;SDS011;59655;42.590;23.364;2022-07-23T11:31:55;26.08;;;7.50;;
71806;SDS011;59655;42.590;23.364;2022-07-23T11:36:56;21.70;;;8.95;;
71806;SDS011;59655;42.590;23.364;2022-07-23T11:39:22;26.75;;;8.43;;
71806;SDS011;59655;42.590;23.364;2022-07-23T11:41:50;23.33;;;8.73;;
71806;SDS011;59655;42.590;23.364;2022-07-23T11:44:26;22.70;;;8.18;;
71806;SDS011;59655;42.590;23.364;2022-07-23T11:46:58;21.75;;;7.97;;
71806;SDS011;59655;42.590;23.364;2022-07-23T11:49:25;21.92;;;7.65;;
71806;SDS011;59655;42.590;23.364;2022-07-23T11:52:08;23.30;;;8.57;;
71806;SDS011;59655;42.590;23.364;2022-07-23T11:57:26;19.33;;;7.68;;
71806;SDS011;59655;42.590;23.364;2022-07-23T11:59:54;19.40;;;8.07;;
71806;SDS011;59655;42.590;23.364;2022-07-23T12:02:33;22.73;;;7.65;;
71806;SDS011;59655;42.590;23.364;2022-07-23T12:04:59;26.73;;;8.35;;
71806;SDS011;59655;42.590;23.364;2022-07-23T12:07:25;24.50;;;7.60;;
71806;SDS011;59655;42.590;23.364;2022-07-23T12:12:39;25.58;;;7.47;;
71806;SDS011;59655;42.590;23.364;2022-07-23T12:15:07;21.85;;;7.60;;
71806;SDS011;59655;42.590;23.364;2022-07-23T12:17:34;23.40;;;7.25;;
71806;SDS011;59655;42.590;23.364;2022-07-23T12:20:02;18.25;;;7.03;;
71806;SDS011;59655;42.590;23.364;2022-07-23T12:25:04;22.92;;;8.02;;
71806;SDS011;59655;42.590;23.364;2022-07-23T12:27:32;20.65;;;7.57;;
71806;SDS011;59655;42.590;23.364;2022-07-23T12:29:58;26.00;;;8.13;;
71806;SDS011;59655;42.590;23.364;2022-07-23T12:32:25;22.52;;;6.95;;
71806;SDS011;59655;42.590;23.364;2022-07-23T12:35:03;26.88;;;7.70;;
71806;SDS011;59655;42.590;23.364;2022-07-23T12:37:38;19.40;;;6.85;;
71806;SDS011;59655;42.590;23.364;2022-07-23T12:40:27;28.92;;;7.68;;
71806;SDS011;59655;42.590;23.364;2022-07-23T12:43:02;22.95;;;7.63;;
71806;SDS011;59655;42.590;23.364;2022-07-23T12:45:43;24.13;;;8.20;;
71806;SDS011;59655;42.590;23.364;2022-07-23T12:48:29;20.90;;;8.13;;
71806;SDS011;59655;42.590;23.364;2022-07-23T12:51:00;22.95;;;7.15;;
71806;SDS011;59655;42.590;23.364;2022-07-23T12:56:13;28.80;;;7.68;;
71806;SDS011;59655;42.590;23.364;2022-07-23T12:58:53;25.83;;;7.40;;
71806;SDS011;59655;42.590;23.364;2022-07-23T13:03:59;26.42;;;6.75;;
71806;SDS011;59655;42.590;23.364;2022-07-23T13:06:27;21.92;;;6.95;;
71806;SDS011;59655;42.590;23.364;2022-07-23T13:08:54;23.20;;;6.60;;
71806;SDS011;59655;42.590;23.364;2022-07-23T13:11:19;26.83;;;7.30;;
71806;SDS011;59655;42.590;23.364;2022-07-23T13:13:45;28.83;;;7.38;;
71806;SDS011;59655;42.590;23.364;2022-07-23T13:16:10;28.83;;;7.55;;
71806;SDS011;59655;42.590;23.364;2022-07-23T13:18:35;23.77;;;7.65;;
71806;SDS011;59655;42.590;23.364;2022-07-23T13:21:01;24.55;;;7.60;;
71806;SDS011;59655;42.590;23.364;2022-07-23T13:23:27;25.20;;;8.05;;
71806;SDS011;59655;42.590;23.364;2022-07-23T13:25:53;26.00;;;8.85;;
71806;SDS011;59655;42.590;23.364;2022-07-23T13:28:19;21.67;;;8.23;;
71806;SDS011;59655;42.590;23.364;2022-07-23T13:30:46;20.05;;;7.50;;
71806;SDS011;59655;42.590;23.364;2022-07-23T13:33:14;25.42;;;7.82;;
71806;SDS011;59655;42.590;23.364;2022-07-23T13:35:40;21.35;;;8.32;;
71806;SDS011;59655;42.590;23.364;2022-07-23T13:38:06;24.00;;;7.97;;
71806;SDS011;59655;42.590;23.364;2022-07-23T13:40:37;22.42;;;8.23;;
71806;SDS011;59655;42.590;23.364;2022-07-23T13:43:11;30.23;;;8.00;;
71806;SDS011;59655;42.590;23.364;2022-07-23T13:45:40;26.30;;;8.93;;
71806;SDS011;59655;42.590;23.364;2022-07-23T13:48:07;20.50;;;7.53;;
71806;SDS011;59655;42.590;23.364;2022-07-23T13:50:33;20.67;;;6.97;;
71806;SDS011;59655;42.590;23.364;2022-07-23T13:53:05;22.58;;;6.97;;
71806;SDS011;59655;42.590;23.364;2022-07-23T13:55:33;20.80;;;7.38;;
71806;SDS011;59655;42.590;23.364;2022-07-23T13:57:59;25.23;;;7.47;;
71806;SDS011;59655;42.590;23.364;2022-07-23T14:00:25;22.58;;;7.35;;
71806;SDS011;59655;42.590;23.364;2022-07-23T14:02:51;28.42;;;9.18;;
71806;SDS011;59655;42.590;23.364;2022-07-23T14:05:17;21.60;;;8.27;;
71806;SDS011;59655;42.590;23.364;2022-07-23T14:07:42;27.58;;;8.48;;
71806;SDS011;59655;42.590;23.364;2022-07-23T14:10:09;26.60;;;8.35;;
71806;SDS011;59655;42.590;23.364;2022-07-23T14:12:35;23.52;;;8.32;;
71806;SDS011;59655;42.590;23.364;2022-07-23T14:15:00;26.17;;;8.38;;
71806;SDS011;59655;42.590;23.364;2022-07-23T14:17:26;23.50;;;7.85;;
71806;SDS011;59655;42.590;23.364;2022-07-23T14:19:52;23.60;;;9.65;;
71806;SDS011;59655;42.590;23.364;2022-07-23T14:22:17;25.38;;;8.50;;
71806;SDS011;59655;42.590;23.364;2022-07-23T14:24:43;22.50;;;8.65;;
71806;SDS011;59655;42.590;23.364;2022-07-23T14:27:08;29.38;;;9.30;;
71806;SDS011;59655;42.590;23.364;2022-07-23T14:29:34;25.58;;;9.00;;
71806;SDS011;59655;42.590;23.364;2022-07-23T14:32:00;27.55;;;9.63;;
71806;SDS011;59655;42.590;23.364;2022-07-23T14:34:26;29.25;;;8.20;;
71806;SDS011;59655;42.590;23.364;2022-07-23T14:36:52;22.65;;;9.27;;
71806;SDS011;59655;42.590;23.364;2022-07-23T14:39:18;25.50;;;8.43;;
71806;SDS011;59655;42.590;23.364;2022-07-23T14:41:43;25.63;;;8.93;;
71806;SDS011;59655;42.590;23.364;2022-07-23T14:44:09;24.60;;;8.90;;
71806;SDS011;59655;42.590;23.364;2022-07-23T14:46:35;26.52;;;9.00;;
71806;SDS011;59655;42.590;23.364;2022-07-23T14:49:00;20.75;;;8.38;;
71806;SDS011;59655;42.590;23.364;2022-07-23T14:51:27;28.40;;;9.65;;
71806;SDS011;59655;42.590;23.364;2022-07-23T14:53:52;31.02;;;9.05;;
71806;SDS011;59655;42.590;23.364;2022-07-23T14:56:18;25.08;;;8.43;;
71806;SDS011;59655;42.590;23.364;2022-07-23T14:58:43;25.38;;;8.27;;
71806;SDS011;59655;42.590;23.364;2022-07-23T15:01:09;26.42;;;9.10;;
71806;SDS011;59655;42.590;23.364;2022-07-23T15:03:34;23.33;;;8.95;;
71806;SDS011;59655;42.590;23.364;2022-07-23T15:06:00;28.95;;;8.98;;
71806;SDS011;59655;42.590;23.364;2022-07-23T15:08:25;26.85;;;8.65;;
71806;SDS011;59655;42.590;23.364;2022-07-23T15:10:51;32.92;;;9.52;;
71806;SDS011;59655;42.590;23.364;2022-07-23T15:13:16;27.15;;;8.48;;
71806;SDS011;59655;42.590;23.364;2022-07-23T15:15:42;21.27;;;9.30;;
71806;SDS011;59655;42.590;23.364;2022-07-23T15:18:08;25.88;;;10.80;;
71806;SDS011;59655;42.590;23.364;2022-07-23T15:20:33;19.25;;;9.57;;